createdAt,value
2017-08-23T00:00:00.684Z,1012.8
2017-08-23T00:01:00.669Z,1012.81
2017-08-23T00:02:00.651Z,1012.8
2017-08-23T00:03:00.638Z,1012.77
2017-08-23T00:04:00.619Z,1012.78
2017-08-23T00:05:00.602Z,1012.75
2017-08-23T00:06:00.603Z,1012.76
2017-08-23T00:07:00.572Z,1012.75
2017-08-23T00:08:00.561Z,1012.72
2017-08-23T00:09:00.537Z,1012.71
2017-08-23T00:10:00.532Z,1012.73
2017-08-23T00:11:00.508Z,1012.71
2017-08-23T00:12:00.491Z,1012.72
2017-08-23T00:13:00.478Z,1012.73
2017-08-23T00:14:00.462Z,1012.7
2017-08-23T00:15:00.439Z,1012.69
2017-08-23T00:16:00.428Z,1012.7
2017-08-23T00:17:00.416Z,1012.68
2017-08-23T00:18:00.391Z,1012.68
2017-08-23T00:19:00.374Z,1012.65
2017-08-23T00:20:00.359Z,1012.65
2017-08-23T00:21:00.336Z,1012.6
2017-08-23T00:22:00.318Z,1012.61
2017-08-23T00:23:00.322Z,1012.59
2017-08-23T00:24:00.287Z,1012.6
2017-08-23T00:25:00.271Z,1012.59
2017-08-23T00:26:00.256Z,1012.61
2017-08-23T00:27:00.237Z,1012.62
2017-08-23T00:28:00.222Z,1012.65
2017-08-23T00:29:00.227Z,1012.64
2017-08-23T00:30:00.187Z,1012.63
2017-08-23T00:31:00.174Z,1012.66
2017-08-23T00:32:00.156Z,1012.69
2017-08-23T00:33:00.139Z,1012.65
2017-08-23T00:34:00.124Z,1012.68
2017-08-23T00:35:00.107Z,1012.7
2017-08-23T00:36:00.090Z,1012.71
2017-08-23T00:37:00.075Z,1012.69
2017-08-23T00:38:00.057Z,1012.67
2017-08-23T00:39:00.040Z,1012.68
2017-08-23T00:40:00.027Z,1012.64
2017-08-23T00:41:00.005Z,1012.64
2017-08-23T00:41:59.988Z,1012.63
2017-08-23T00:42:59.974Z,1012.63
2017-08-23T00:43:59.957Z,1012.57
2017-08-23T00:44:59.938Z,1012.58
2017-08-23T00:45:59.925Z,1012.61
2017-08-23T00:46:59.907Z,1012.59
2017-08-23T00:47:59.888Z,1012.58
2017-08-23T00:48:59.874Z,1012.53
2017-08-23T00:49:59.861Z,1012.57
2017-08-23T00:50:59.841Z,1012.53
2017-08-23T00:51:59.822Z,1012.54
2017-08-23T00:52:59.806Z,1012.54
2017-08-23T00:53:59.787Z,1012.52
2017-08-23T00:54:59.770Z,1012.51
2017-08-23T00:55:59.753Z,1012.52
2017-08-23T00:56:59.736Z,1012.52
2017-08-23T00:57:59.721Z,1012.54
2017-08-23T00:58:59.702Z,1012.56
2017-08-23T00:59:59.687Z,1012.52
2017-08-23T01:00:59.678Z,1012.53
2017-08-23T01:01:59.654Z,1012.54
2017-08-23T01:02:59.634Z,1012.54
2017-08-23T01:03:59.626Z,1012.52
2017-08-23T01:04:59.607Z,1012.52
2017-08-23T01:05:59.583Z,1012.5
2017-08-23T01:06:59.569Z,1012.51
2017-08-23T01:07:59.556Z,1012.55
2017-08-23T01:08:59.537Z,1012.48
2017-08-23T01:09:59.525Z,1012.47
2017-08-23T01:10:59.499Z,1012.46
2017-08-23T01:11:59.485Z,1012.42
2017-08-23T01:12:59.468Z,1012.43
2017-08-23T01:13:59.449Z,1012.44
2017-08-23T01:14:59.436Z,1012.44
2017-08-23T01:15:59.415Z,1012.42
2017-08-23T01:16:59.396Z,1012.47
2017-08-23T01:17:59.388Z,1012.47
2017-08-23T01:18:59.368Z,1012.48
2017-08-23T01:19:59.351Z,1012.45
2017-08-23T01:20:59.355Z,1012.45
2017-08-23T01:21:59.313Z,1012.44
2017-08-23T01:22:59.297Z,1012.44
2017-08-23T01:23:59.278Z,1012.47
2017-08-23T01:24:59.266Z,1012.48
2017-08-23T01:25:59.245Z,1012.51
2017-08-23T01:26:59.235Z,1012.48
2017-08-23T01:27:59.216Z,1012.48
2017-08-23T01:28:59.196Z,1012.48
2017-08-23T01:29:59.179Z,1012.44
2017-08-23T01:30:59.161Z,1012.44
2017-08-23T01:31:59.148Z,1012.44
2017-08-23T01:32:59.129Z,1012.37
2017-08-23T01:33:59.117Z,1012.41
2017-08-23T01:34:59.092Z,1012.4
2017-08-23T01:35:59.082Z,1012.39
2017-08-23T01:36:59.062Z,1012.4
2017-08-23T01:37:59.048Z,1012.36
2017-08-23T01:38:59.024Z,1012.39
2017-08-23T01:39:59.006Z,1012.35
2017-08-23T01:40:59.002Z,1012.32
2017-08-23T01:41:58.978Z,1012.31
2017-08-23T01:42:58.956Z,1012.28
2017-08-23T01:43:58.951Z,1012.31
2017-08-23T01:44:58.923Z,1012.31
2017-08-23T01:45:58.908Z,1012.3
2017-08-23T01:46:58.890Z,1012.29
2017-08-23T01:47:58.874Z,1012.28
2017-08-23T01:48:58.870Z,1012.29
2017-08-23T01:49:58.839Z,1012.28
2017-08-23T01:50:58.820Z,1012.25
2017-08-23T01:51:58.808Z,1012.25
2017-08-23T01:52:58.790Z,1012.29
2017-08-23T01:53:58.777Z,1012.24
2017-08-23T01:54:58.758Z,1012.25
2017-08-23T01:55:58.738Z,1012.28
2017-08-23T01:56:58.720Z,1012.26
2017-08-23T01:57:58.701Z,1012.27
2017-08-23T01:58:58.683Z,1012.25
2017-08-23T01:59:58.669Z,1012.25
2017-08-23T02:00:58.650Z,1012.26
2017-08-23T02:01:58.634Z,1012.27
2017-08-23T02:02:58.618Z,1012.25
2017-08-23T02:03:58.597Z,1012.24
2017-08-23T02:04:58.581Z,1012.24
2017-08-23T02:05:58.570Z,1012.24
2017-08-23T02:06:58.550Z,1012.24
2017-08-23T02:07:58.528Z,1012.24
2017-08-23T02:08:58.519Z,1012.23
2017-08-23T02:09:58.497Z,1012.23
2017-08-23T02:10:58.478Z,1012.23
2017-08-23T02:11:58.461Z,1012.26
2017-08-23T02:12:58.444Z,1012.27
2017-08-23T02:13:58.429Z,1012.23
2017-08-23T02:14:58.409Z,1012.2
2017-08-23T02:15:58.392Z,1012.24
2017-08-23T02:16:58.377Z,1012.21
2017-08-23T02:17:58.358Z,1012.22
2017-08-23T02:18:58.339Z,1012.25
2017-08-23T02:19:58.323Z,1012.24
2017-08-23T02:20:58.306Z,1012.25
2017-08-23T02:21:58.289Z,1012.25
2017-08-23T02:22:58.270Z,1012.24
2017-08-23T02:23:58.257Z,1012.24
2017-08-23T02:24:58.237Z,1012.22
2017-08-23T02:25:58.219Z,1012.19
2017-08-23T02:26:58.207Z,1012.19
2017-08-23T02:27:58.186Z,1012.2
2017-08-23T02:28:58.170Z,1012.13
2017-08-23T02:29:58.148Z,1012.1
2017-08-23T02:30:58.138Z,1012.14
2017-08-23T02:31:58.130Z,1012.13
2017-08-23T02:32:58.100Z,1012.13
2017-08-23T02:33:58.081Z,1012.13
2017-08-23T02:34:58.072Z,1012.12
2017-08-23T02:35:58.045Z,1012.08
2017-08-23T02:36:58.029Z,1012.08
2017-08-23T02:37:58.020Z,1012.05
2017-08-23T02:38:57.999Z,1012.09
2017-08-23T02:39:57.982Z,1012.11
2017-08-23T02:40:57.963Z,1012.08
2017-08-23T02:41:57.949Z,1012.09
2017-08-23T02:42:57.925Z,1012.06
2017-08-23T02:43:57.912Z,1012.09
2017-08-23T02:44:57.891Z,1012.06
2017-08-23T02:45:57.872Z,1012.07
2017-08-23T02:46:57.859Z,1012.05
2017-08-23T02:47:57.839Z,1012.04
2017-08-23T02:48:58.020Z,1012.03
2017-08-23T02:49:57.801Z,1012.04
2017-08-23T02:50:57.789Z,1012.03
2017-08-23T02:51:57.771Z,1012.05
2017-08-23T02:52:57.761Z,1012.06
2017-08-23T02:53:57.740Z,1012.04
2017-08-23T02:54:57.716Z,1012.04
2017-08-23T02:55:57.700Z,1012.01
2017-08-23T02:56:57.680Z,1012
2017-08-23T02:57:57.663Z,1012.01
2017-08-23T02:58:57.650Z,1011.97
2017-08-23T02:59:57.630Z,1011.99
2017-08-23T03:00:57.614Z,1011.96
2017-08-23T03:01:57.600Z,1011.96
2017-08-23T03:02:57.583Z,1011.95
2017-08-23T03:03:57.561Z,1011.97
2017-08-23T03:04:57.551Z,1012
2017-08-23T03:05:57.526Z,1011.98
2017-08-23T03:06:57.511Z,1011.98
2017-08-23T03:07:57.489Z,1011.98
2017-08-23T03:08:57.475Z,1011.98
2017-08-23T03:09:57.461Z,1011.95
2017-08-23T03:10:57.441Z,1011.95
2017-08-23T03:11:57.419Z,1011.92
2017-08-23T03:12:57.410Z,1011.93
2017-08-23T03:13:57.392Z,1011.89
2017-08-23T03:14:57.369Z,1011.89
2017-08-23T03:15:57.353Z,1011.87
2017-08-23T03:16:57.332Z,1011.88
2017-08-23T03:17:57.325Z,1011.84
2017-08-23T03:18:57.301Z,1011.83
2017-08-23T03:19:57.282Z,1011.81
2017-08-23T03:20:57.267Z,1011.8
2017-08-23T03:21:57.245Z,1011.82
2017-08-23T03:22:57.228Z,1011.8
2017-08-23T03:23:57.211Z,1011.82
2017-08-23T03:24:57.198Z,1011.79
2017-08-23T03:25:57.177Z,1011.82
2017-08-23T03:26:57.160Z,1011.8
2017-08-23T03:27:57.140Z,1011.79
2017-08-23T03:28:57.122Z,1011.76
2017-08-23T03:29:57.105Z,1011.8
2017-08-23T03:30:57.163Z,1011.83
2017-08-23T03:31:57.071Z,1011.83
2017-08-23T03:32:57.050Z,1011.82
2017-08-23T03:33:57.035Z,1011.85
2017-08-23T03:34:57.017Z,1011.81
2017-08-23T03:35:57.037Z,1011.81
2017-08-23T03:36:56.982Z,1011.82
2017-08-23T03:37:56.970Z,1011.82
2017-08-23T03:38:56.949Z,1011.81
2017-08-23T03:39:56.929Z,1011.8
2017-08-23T03:40:56.910Z,1011.81
2017-08-23T03:41:56.900Z,1011.83
2017-08-23T03:42:56.881Z,1011.81
2017-08-23T03:43:56.860Z,1011.76
2017-08-23T03:44:56.840Z,1011.79
2017-08-23T03:45:56.823Z,1011.77
2017-08-23T03:46:56.810Z,1011.81
2017-08-23T03:47:56.791Z,1011.79
2017-08-23T03:48:56.772Z,1011.77
2017-08-23T03:49:56.751Z,1011.78
2017-08-23T03:50:56.733Z,1011.78
2017-08-23T03:51:56.722Z,1011.75
2017-08-23T03:52:56.711Z,1011.74
2017-08-23T03:53:56.682Z,1011.74
2017-08-23T03:54:56.670Z,1011.72
2017-08-23T03:55:56.660Z,1011.7
2017-08-23T03:56:56.632Z,1011.72
2017-08-23T03:57:56.612Z,1011.69
2017-08-23T03:58:56.603Z,1011.71
2017-08-23T03:59:56.577Z,1011.67
2017-08-23T04:00:56.562Z,1011.7
2017-08-23T04:01:56.541Z,1011.66
2017-08-23T04:02:56.521Z,1011.67
2017-08-23T04:03:56.511Z,1011.64
2017-08-23T04:04:56.488Z,1011.64
2017-08-23T04:05:56.468Z,1011.63
2017-08-23T04:06:56.450Z,1011.63
2017-08-23T04:07:56.435Z,1011.63
2017-08-23T04:08:56.419Z,1011.63
2017-08-23T04:09:56.413Z,1011.62
2017-08-23T04:10:56.383Z,1011.6
2017-08-23T04:11:56.369Z,1011.62
2017-08-23T04:12:56.355Z,1011.65
2017-08-23T04:13:56.325Z,1011.64
2017-08-23T04:14:56.312Z,1011.65
2017-08-23T04:15:56.290Z,1011.65
2017-08-23T04:16:56.273Z,1011.65
2017-08-23T04:17:56.259Z,1011.7
2017-08-23T04:18:56.243Z,1011.66
2017-08-23T04:19:56.221Z,1011.67
2017-08-23T04:20:56.202Z,1011.69
2017-08-23T04:21:56.196Z,1011.68
2017-08-23T04:22:56.167Z,1011.69
2017-08-23T04:23:56.152Z,1011.67
2017-08-23T04:24:56.134Z,1011.69
2017-08-23T04:25:56.112Z,1011.69
2017-08-23T04:26:56.100Z,1011.7
2017-08-23T04:27:56.073Z,1011.69
2017-08-23T04:28:56.064Z,1011.66
2017-08-23T04:29:56.041Z,1011.68
2017-08-23T04:30:56.027Z,1011.69
2017-08-23T04:31:56.016Z,1011.66
2017-08-23T04:32:55.987Z,1011.68
2017-08-23T04:33:55.981Z,1011.64
2017-08-23T04:34:55.954Z,1011.67
2017-08-23T04:35:55.934Z,1011.63
2017-08-23T04:36:55.915Z,1011.65
2017-08-23T04:37:55.902Z,1011.68
2017-08-23T04:38:55.882Z,1011.68
2017-08-23T04:39:55.864Z,1011.68
2017-08-23T04:40:55.846Z,1011.66
2017-08-23T04:41:55.830Z,1011.66
2017-08-23T04:42:55.812Z,1011.67
2017-08-23T04:43:55.792Z,1011.61
2017-08-23T04:44:55.776Z,1011.61
2017-08-23T04:45:55.759Z,1011.59
2017-08-23T04:46:55.740Z,1011.57
2017-08-23T04:47:55.723Z,1011.56
2017-08-23T04:48:55.701Z,1011.55
2017-08-23T04:49:55.683Z,1011.53
2017-08-23T04:50:55.668Z,1011.52
2017-08-23T04:51:55.650Z,1011.5
2017-08-23T04:52:55.733Z,1011.47
2017-08-23T04:53:55.613Z,1011.46
2017-08-23T04:54:55.602Z,1011.43
2017-08-23T04:55:55.579Z,1011.41
2017-08-23T04:56:55.599Z,1011.41
2017-08-23T04:57:55.543Z,1011.4
2017-08-23T04:58:55.581Z,1011.41
2017-08-23T04:59:55.513Z,1011.39
2017-08-23T05:00:55.593Z,1011.41
2017-08-23T05:01:55.473Z,1011.4
2017-08-23T05:02:55.504Z,1011.38
2017-08-23T05:03:55.438Z,1011.38
2017-08-23T05:04:55.477Z,1011.37
2017-08-23T05:05:55.403Z,1011.38
2017-08-23T05:06:55.393Z,1011.33
2017-08-23T05:07:55.364Z,1011.38
2017-08-23T05:08:55.358Z,1011.37
2017-08-23T05:09:55.333Z,1011.38
2017-08-23T05:10:55.313Z,1011.38
2017-08-23T05:11:55.295Z,1011.4
2017-08-23T05:12:55.326Z,1011.37
2017-08-23T05:13:55.263Z,1011.4
2017-08-23T05:14:55.294Z,1011.41
2017-08-23T05:15:55.224Z,1011.37
2017-08-23T05:16:55.257Z,1011.36
2017-08-23T05:17:55.193Z,1011.4
2017-08-23T05:18:55.224Z,1011.37
2017-08-23T05:19:55.152Z,1011.36
2017-08-23T05:20:55.187Z,1011.36
2017-08-23T05:21:55.123Z,1011.36
2017-08-23T05:22:55.103Z,1011.38
2017-08-23T05:23:55.084Z,1011.39
2017-08-23T05:24:55.068Z,1011.42
2017-08-23T05:25:55.055Z,1011.42
2017-08-23T05:26:55.086Z,1011.4
2017-08-23T05:27:55.011Z,1011.4
2017-08-23T05:28:54.993Z,1011.37
2017-08-23T05:29:54.973Z,1011.38
2017-08-23T05:30:54.962Z,1011.4
2017-08-23T05:31:54.945Z,1011.42
2017-08-23T05:32:54.925Z,1011.43
2017-08-23T05:33:54.903Z,1011.45
2017-08-23T05:34:54.885Z,1011.44
2017-08-23T05:35:54.871Z,1011.46
2017-08-23T05:36:54.852Z,1011.42
2017-08-23T05:37:54.831Z,1011.4
2017-08-23T05:38:54.822Z,1011.37
2017-08-23T05:39:54.803Z,1011.36
2017-08-23T05:40:54.785Z,1011.36
2017-08-23T05:41:54.774Z,1011.37
2017-08-23T05:42:54.753Z,1011.4
2017-08-23T05:43:54.732Z,1011.37
2017-08-23T05:44:54.713Z,1011.38
2017-08-23T05:45:54.694Z,1011.38
2017-08-23T05:46:54.681Z,1011.4
2017-08-23T05:47:54.665Z,1011.36
2017-08-23T05:48:54.642Z,1011.39
2017-08-23T05:49:54.623Z,1011.38
2017-08-23T05:50:54.613Z,1011.38
2017-08-23T05:51:54.587Z,1011.41
2017-08-23T05:52:54.573Z,1011.4
2017-08-23T05:53:54.552Z,1011.42
2017-08-23T05:54:54.747Z,1011.4
2017-08-23T05:55:54.522Z,1011.38
2017-08-23T05:56:54.505Z,1011.42
2017-08-23T05:57:54.485Z,1011.41
2017-08-23T05:58:54.472Z,1011.46
2017-08-23T05:59:54.451Z,1011.45
2017-08-23T06:00:54.434Z,1011.42
2017-08-23T06:01:54.419Z,1011.47
2017-08-23T06:02:54.397Z,1011.48
2017-08-23T06:03:54.386Z,1011.48
2017-08-23T06:04:54.364Z,1011.49
2017-08-23T06:05:54.357Z,1011.51
2017-08-23T06:06:54.333Z,1011.48
2017-08-23T06:07:54.323Z,1011.5
2017-08-23T06:08:54.295Z,1011.51
2017-08-23T06:09:54.284Z,1011.49
2017-08-23T06:10:54.274Z,1011.46
2017-08-23T06:11:54.244Z,1011.46
2017-08-23T06:12:54.225Z,1011.46
2017-08-23T06:13:54.211Z,1011.41
2017-08-23T06:14:54.192Z,1011.47
2017-08-23T06:15:54.185Z,1011.44
2017-08-23T06:16:54.163Z,1011.42
2017-08-23T06:17:54.153Z,1011.45
2017-08-23T06:18:54.122Z,1011.37
2017-08-23T06:19:54.111Z,1011.36
2017-08-23T06:20:54.093Z,1011.36
2017-08-23T06:21:54.076Z,1011.33
2017-08-23T06:22:54.064Z,1011.37
2017-08-23T06:23:54.042Z,1011.36
2017-08-23T06:24:54.025Z,1011.34
2017-08-23T06:25:54.004Z,1011.36
2017-08-23T06:26:53.987Z,1011.33
2017-08-23T06:27:53.972Z,1011.33
2017-08-23T06:28:53.953Z,1011.31
2017-08-23T06:29:53.938Z,1011.32
2017-08-23T06:30:53.921Z,1011.3
2017-08-23T06:31:53.908Z,1011.31
2017-08-23T06:32:53.885Z,1011.34
2017-08-23T06:33:53.868Z,1011.31
2017-08-23T06:34:53.854Z,1011.29
2017-08-23T06:35:53.832Z,1011.3
2017-08-23T06:36:53.823Z,1011.27
2017-08-23T06:37:53.800Z,1011.29
2017-08-23T06:38:53.783Z,1011.3
2017-08-23T06:39:53.767Z,1011.3
2017-08-23T06:40:53.752Z,1011.3
2017-08-23T06:41:53.734Z,1011.31
2017-08-23T06:42:53.718Z,1011.3
2017-08-23T06:43:53.703Z,1011.31
2017-08-23T06:44:53.684Z,1011.28
2017-08-23T06:45:53.671Z,1011.26
2017-08-23T06:46:53.654Z,1011.29
2017-08-23T06:47:53.634Z,1011.29
2017-08-23T06:48:53.613Z,1011.29
2017-08-23T06:49:53.603Z,1011.3
2017-08-23T06:50:53.583Z,1011.27
2017-08-23T06:51:53.582Z,1011.29
2017-08-23T06:52:53.549Z,1011.31
2017-08-23T06:53:53.536Z,1011.32
2017-08-23T06:54:53.517Z,1011.32
2017-08-23T06:55:53.502Z,1011.31
2017-08-23T06:56:53.485Z,1011.32
2017-08-23T06:57:53.472Z,1011.39
2017-08-23T06:58:53.456Z,1011.36
2017-08-23T06:59:53.434Z,1011.37
2017-08-23T07:00:53.422Z,1011.41
2017-08-23T07:01:53.624Z,1011.48
2017-08-23T07:02:53.402Z,1011.46
2017-08-23T07:03:53.374Z,1011.49
2017-08-23T07:04:53.359Z,1011.53
2017-08-23T07:05:53.350Z,1011.52
2017-08-23T07:06:53.332Z,1011.55
2017-08-23T07:07:53.316Z,1011.54
2017-08-23T07:08:53.309Z,1011.62
2017-08-23T07:09:53.294Z,1011.62
2017-08-23T07:10:53.280Z,1011.64
2017-08-23T07:11:53.268Z,1011.67
2017-08-23T07:12:53.264Z,1011.65
2017-08-23T07:13:53.253Z,1011.65
2017-08-23T07:14:53.233Z,1011.62
2017-08-23T07:15:53.227Z,1011.63
2017-08-23T07:16:53.222Z,1011.66
2017-08-23T07:17:53.205Z,1011.83
2017-08-23T07:18:53.201Z,1011.99
2017-08-23T07:19:53.497Z,1012.07
2017-08-23T07:20:53.179Z,1012.15
2017-08-23T07:21:53.182Z,1012.18
2017-08-23T07:22:53.161Z,1012.24
2017-08-23T07:23:53.152Z,1012.23
2017-08-23T07:24:53.146Z,1012.16
2017-08-23T07:25:53.143Z,1012.2
2017-08-23T07:26:53.133Z,1012.17
2017-08-23T07:27:53.272Z,1012.18
2017-08-23T07:28:53.113Z,1012.21
2017-08-23T07:29:53.116Z,1012.28
2017-08-23T07:30:53.104Z,1012.25
2017-08-23T07:31:53.143Z,1012.27
2017-08-23T07:32:53.093Z,1012.33
2017-08-23T07:33:53.093Z,1012.36
2017-08-23T07:34:53.076Z,1012.31
2017-08-23T07:35:53.067Z,1012.3
2017-08-23T07:36:53.063Z,1012.34
2017-08-23T07:37:53.063Z,1012.31
2017-08-23T07:38:53.049Z,1012.27
2017-08-23T07:39:53.042Z,1012.25
2017-08-23T07:40:53.037Z,1012.22
2017-08-23T07:41:53.042Z,1012.25
2017-08-23T07:42:53.033Z,1012.26
2017-08-23T07:43:53.021Z,1012.21
2017-08-23T07:44:53.018Z,1012.08
2017-08-23T07:45:53.049Z,1012.03
2017-08-23T07:46:53.013Z,1012.01
2017-08-23T07:47:53.007Z,1011.91
2017-08-23T07:48:53.045Z,1011.87
2017-08-23T07:49:53.004Z,1011.87
2017-08-23T07:50:53.003Z,1011.92
2017-08-23T07:51:52.989Z,1011.85
2017-08-23T07:52:52.992Z,1011.86
2017-08-23T07:53:52.993Z,1011.83
2017-08-23T07:54:52.985Z,1011.85
2017-08-23T07:55:52.983Z,1011.83
2017-08-23T07:56:53.048Z,1011.85
2017-08-23T07:57:52.977Z,1011.89
2017-08-23T07:58:53.053Z,1011.86
2017-08-23T07:59:52.975Z,1011.87
2017-08-23T08:00:52.975Z,1011.87
2017-08-23T08:01:52.964Z,1011.87
2017-08-23T08:02:52.964Z,1011.87
2017-08-23T08:03:52.962Z,1011.89
2017-08-23T08:04:52.958Z,1011.89
2017-08-23T08:05:52.955Z,1011.89
2017-08-23T08:06:52.953Z,1011.86
2017-08-23T08:07:52.955Z,1011.83
2017-08-23T08:08:52.954Z,1011.83
2017-08-23T08:09:52.947Z,1011.8
2017-08-23T08:10:52.953Z,1011.76
2017-08-23T08:11:52.955Z,1011.77
2017-08-23T08:12:52.942Z,1011.75
2017-08-23T08:13:52.940Z,1011.79
2017-08-23T08:14:52.942Z,1011.79
2017-08-23T08:15:52.942Z,1011.79
2017-08-23T08:16:52.961Z,1011.78
2017-08-23T08:17:52.937Z,1011.71
2017-08-23T08:18:52.944Z,1011.75
2017-08-23T08:19:52.945Z,1011.71
2017-08-23T08:20:52.934Z,1011.72
2017-08-23T08:21:52.935Z,1011.69
2017-08-23T08:22:52.931Z,1011.69
2017-08-23T08:23:52.931Z,1011.75
2017-08-23T08:24:52.931Z,1011.72
2017-08-23T08:25:52.934Z,1011.72
2017-08-23T08:26:52.936Z,1011.71
2017-08-23T08:27:52.931Z,1011.68
2017-08-23T08:28:52.930Z,1011.74
2017-08-23T08:29:52.937Z,1011.68
2017-08-23T08:30:52.929Z,1011.68
2017-08-23T08:31:52.929Z,1011.69
2017-08-23T08:32:52.930Z,1011.69
2017-08-23T08:33:52.930Z,1011.71
2017-08-23T08:34:52.928Z,1011.71
2017-08-23T08:35:52.930Z,1011.71
2017-08-23T08:36:52.940Z,1011.72
2017-08-23T08:37:52.939Z,1011.68
2017-08-23T08:38:52.930Z,1011.68
2017-08-23T08:39:52.934Z,1011.67
2017-08-23T08:40:52.948Z,1011.68
2017-08-23T08:41:52.931Z,1011.72
2017-08-23T08:42:52.932Z,1011.67
2017-08-23T08:43:52.933Z,1011.68
2017-08-23T08:44:52.942Z,1011.69
2017-08-23T08:45:52.943Z,1011.68
2017-08-23T08:46:52.942Z,1011.68
2017-08-23T08:47:52.938Z,1011.66
2017-08-23T08:48:52.937Z,1011.66
2017-08-23T08:49:52.943Z,1011.63
2017-08-23T08:50:52.942Z,1011.61
2017-08-23T08:51:52.948Z,1011.57
2017-08-23T08:52:52.943Z,1011.6
2017-08-23T08:53:52.942Z,1011.55
2017-08-23T08:54:52.942Z,1011.52
2017-08-23T08:55:52.946Z,1011.48
2017-08-23T08:56:52.948Z,1011.49
2017-08-23T08:57:52.945Z,1011.48
2017-08-23T08:58:52.954Z,1011.47
2017-08-23T08:59:52.952Z,1011.52
2017-08-23T09:00:52.955Z,1011.59
2017-08-23T09:01:52.952Z,1011.62
2017-08-23T09:02:52.952Z,1011.62
2017-08-23T09:03:52.949Z,1011.6
2017-08-23T09:04:52.951Z,1011.59
2017-08-23T09:05:52.954Z,1011.58
2017-08-23T09:06:52.952Z,1011.58
2017-08-23T09:07:52.949Z,1011.59
2017-08-23T09:08:52.964Z,1011.59
2017-08-23T09:09:52.961Z,1011.63
2017-08-23T09:10:52.951Z,1011.61
2017-08-23T09:11:52.951Z,1011.59
2017-08-23T09:12:52.952Z,1011.6
2017-08-23T09:13:52.949Z,1011.58
2017-08-23T09:14:52.952Z,1011.6
2017-08-23T09:15:52.954Z,1011.59
2017-08-23T09:16:52.950Z,1011.61
2017-08-23T09:17:52.963Z,1011.61
2017-08-23T09:18:52.954Z,1011.62
2017-08-23T09:19:52.951Z,1011.62
2017-08-23T09:20:52.961Z,1011.65
2017-08-23T09:21:52.951Z,1011.62
2017-08-23T09:22:52.950Z,1011.61
2017-08-23T09:23:52.953Z,1011.62
2017-08-23T09:24:52.950Z,1011.64
2017-08-23T09:25:52.954Z,1011.66
2017-08-23T09:26:52.957Z,1011.62
2017-08-23T09:27:52.954Z,1011.65
2017-08-23T09:28:52.953Z,1011.65
2017-08-23T09:29:52.964Z,1011.62
2017-08-23T09:30:52.972Z,1011.55
2017-08-23T09:31:52.957Z,1011.54
2017-08-23T09:32:52.961Z,1011.53
2017-08-23T09:33:52.959Z,1011.5
2017-08-23T09:34:52.965Z,1011.49
2017-08-23T09:35:52.962Z,1011.47
2017-08-23T09:36:52.960Z,1011.47
2017-08-23T09:37:52.972Z,1011.44
2017-08-23T09:38:52.973Z,1011.43
2017-08-23T09:39:52.968Z,1011.42
2017-08-23T09:40:52.961Z,1011.42
2017-08-23T09:41:52.970Z,1011.4
2017-08-23T09:42:52.974Z,1011.4
2017-08-23T09:43:52.971Z,1011.38
2017-08-23T09:44:52.965Z,1011.45
2017-08-23T09:45:52.972Z,1011.39
2017-08-23T09:46:52.970Z,1011.39
2017-08-23T09:47:52.970Z,1011.36
2017-08-23T09:48:52.970Z,1011.36
2017-08-23T09:49:52.967Z,1011.41
2017-08-23T09:50:52.975Z,1011.44
2017-08-23T09:51:52.970Z,1011.45
2017-08-23T09:52:52.970Z,1011.47
2017-08-23T09:53:52.987Z,1011.44
2017-08-23T09:54:52.972Z,1011.46
2017-08-23T09:55:52.967Z,1011.42
2017-08-23T09:56:52.964Z,1011.4
2017-08-23T09:57:52.964Z,1011.4
2017-08-23T09:58:52.967Z,1011.39
2017-08-23T09:59:52.965Z,1011.38
2017-08-23T10:00:52.960Z,1011.34
2017-08-23T10:01:52.961Z,1011.31
2017-08-23T10:02:52.961Z,1011.3
2017-08-23T10:03:52.971Z,1011.24
2017-08-23T10:04:52.961Z,1011.27
2017-08-23T10:05:52.956Z,1011.22
2017-08-23T10:06:52.950Z,1011.23
2017-08-23T10:07:52.947Z,1011.28
2017-08-23T10:08:52.950Z,1011.2
2017-08-23T10:09:52.948Z,1011.23
2017-08-23T10:10:52.939Z,1011.24
2017-08-23T10:11:52.936Z,1011.27
2017-08-23T10:12:52.937Z,1011.21
2017-08-23T10:13:52.932Z,1011.22
2017-08-23T10:14:52.928Z,1011.21
2017-08-23T10:15:52.939Z,1011.12
2017-08-23T10:16:52.922Z,1011.17
2017-08-23T10:17:52.913Z,1011.08
2017-08-23T10:18:52.920Z,1011.1
2017-08-23T10:19:52.911Z,1011.05
2017-08-23T10:20:52.908Z,1011.05
2017-08-23T10:21:52.908Z,1011.06
2017-08-23T10:22:52.892Z,1011.03
2017-08-23T10:23:52.890Z,1011.02
2017-08-23T10:24:52.884Z,1011.05
2017-08-23T10:25:52.878Z,1011.05
2017-08-23T10:26:52.876Z,1011.02
2017-08-23T10:27:52.869Z,1011.07
2017-08-23T10:28:52.865Z,1011.08
2017-08-23T10:29:52.860Z,1011.05
2017-08-23T10:30:52.855Z,1011.05
2017-08-23T10:31:52.846Z,1011.04
2017-08-23T10:32:52.845Z,1011.07
2017-08-23T10:33:52.840Z,1011.04
2017-08-23T10:34:52.831Z,1011.02
2017-08-23T10:35:52.831Z,1010.98
2017-08-23T10:36:52.817Z,1010.98
2017-08-23T10:37:52.815Z,1010.96
2017-08-23T10:38:52.811Z,1010.92
2017-08-23T10:39:52.801Z,1010.89
2017-08-23T10:40:52.802Z,1010.89
2017-08-23T10:41:52.792Z,1010.93
2017-08-23T10:42:52.785Z,1010.85
2017-08-23T10:43:52.785Z,1010.89
2017-08-23T10:44:52.788Z,1010.85
2017-08-23T10:45:52.782Z,1010.83
2017-08-23T10:46:52.759Z,1010.84
2017-08-23T10:47:52.757Z,1010.82
2017-08-23T10:48:52.750Z,1010.81
2017-08-23T10:49:52.744Z,1010.82
2017-08-23T10:50:52.739Z,1010.82
2017-08-23T10:51:52.741Z,1010.8
2017-08-23T10:52:52.741Z,1010.8
2017-08-23T10:53:52.729Z,1010.75
2017-08-23T10:54:52.722Z,1010.77
2017-08-23T10:55:52.713Z,1010.79
2017-08-23T10:56:52.711Z,1010.78
2017-08-23T10:57:52.700Z,1010.8
2017-08-23T10:58:52.697Z,1010.78
2017-08-23T10:59:52.700Z,1010.79
2017-08-23T11:00:52.686Z,1010.83
2017-08-23T11:01:52.679Z,1010.78
2017-08-23T11:02:52.673Z,1010.81
2017-08-23T11:03:52.663Z,1010.81
2017-08-23T11:04:52.673Z,1010.86
2017-08-23T11:05:52.665Z,1010.85
2017-08-23T11:06:52.654Z,1010.88
2017-08-23T11:07:52.645Z,1010.87
2017-08-23T11:08:52.638Z,1010.87
2017-08-23T11:09:52.636Z,1010.89
2017-08-23T11:10:52.625Z,1010.9
2017-08-23T11:11:52.622Z,1010.79
2017-08-23T11:12:52.609Z,1010.79
2017-08-23T11:13:52.610Z,1010.75
2017-08-23T11:14:52.598Z,1010.78
2017-08-23T11:15:52.599Z,1010.81
2017-08-23T11:16:52.587Z,1010.84
2017-08-23T11:17:52.579Z,1010.82
2017-08-23T11:18:52.573Z,1010.81
2017-08-23T11:19:52.570Z,1010.82
2017-08-23T11:20:52.559Z,1010.81
2017-08-23T11:21:52.561Z,1010.87
2017-08-23T11:22:52.548Z,1010.82
2017-08-23T11:23:52.540Z,1010.83
2017-08-23T11:24:52.538Z,1010.87
2017-08-23T11:25:52.538Z,1010.83
2017-08-23T11:26:52.524Z,1010.83
2017-08-23T11:27:52.519Z,1010.83
2017-08-23T11:28:52.509Z,1010.8
2017-08-23T11:29:52.507Z,1010.79
2017-08-23T11:30:52.498Z,1010.76
2017-08-23T11:31:52.488Z,1010.73
2017-08-23T11:32:52.484Z,1010.71
2017-08-23T11:33:52.480Z,1010.65
2017-08-23T11:34:52.470Z,1010.63
2017-08-23T11:35:52.469Z,1010.6
2017-08-23T11:36:52.462Z,1010.61
2017-08-23T11:37:52.447Z,1010.54
2017-08-23T11:38:52.448Z,1010.54
2017-08-23T11:39:52.437Z,1010.51
2017-08-23T11:40:52.434Z,1010.48
2017-08-23T11:41:52.426Z,1010.49
2017-08-23T11:42:52.417Z,1010.43
2017-08-23T11:43:52.414Z,1010.46
2017-08-23T11:44:52.409Z,1010.38
2017-08-23T11:45:52.395Z,1010.4
2017-08-23T11:46:52.388Z,1010.41
2017-08-23T11:47:52.388Z,1010.4
2017-08-23T11:48:52.377Z,1010.38
2017-08-23T11:49:52.378Z,1010.38
2017-08-23T11:50:52.369Z,1010.32
2017-08-23T11:51:52.357Z,1010.35
2017-08-23T11:52:52.358Z,1010.27
2017-08-23T11:53:52.387Z,1010.24
2017-08-23T11:54:52.340Z,1010.22
2017-08-23T11:55:52.336Z,1010.27
2017-08-23T11:56:52.327Z,1010.2
2017-08-23T11:57:52.321Z,1010.18
2017-08-23T11:58:52.316Z,1010.2
2017-08-23T11:59:52.308Z,1010.15
2017-08-23T12:00:52.352Z,1010.16
2017-08-23T12:01:52.300Z,1010.13
2017-08-23T12:02:52.289Z,1010.07
2017-08-23T12:03:52.320Z,1009.99
2017-08-23T12:04:52.274Z,1009.98
2017-08-23T12:05:52.268Z,1009.97
2017-08-23T12:06:52.268Z,1009.92
2017-08-23T12:07:52.260Z,1009.89